Time;durP1;ratioP1;P1;durP2;ratioP2;P2;SDS_P1;SDS_P2;PMS_P1;PMS_P2;Temp;Humidity;BMP_temperature;BMP_pressure;BME280_temperature;BME280_humidity;BME280_pressure;Samples;Min_cycle;Max_cycle;Signal;HPM_P1;HPM_P2
2022/10/18 00:01:00;;;;;;;3.30;2.97;;;13.40;99.90;;;;;;5073417;28;20501;-68
2022/10/18 00:03:27;;;;;;;3.03;2.73;;;13.30;99.90;;;;;;5072551;28;20479;-68
2022/10/18 00:05:54;;;;;;;3.13;2.80;;;13.30;99.90;;;;;;5073307;28;20455;-69
2022/10/18 00:08:21;;;;;;;3.20;2.47;;;13.30;99.90;;;;;;5073650;28;20461;-68
2022/10/18 00:10:48;;;;;;;2.43;2.23;;;13.30;99.90;;;;;;5073300;28;20459;-68
2022/10/18 00:13:15;;;;;;;6.23;2.70;;;13.30;99.90;;;;;;5072698;28;20466;-69
2022/10/18 00:15:50;;;;;;;3.30;2.33;;;13.20;99.90;;;;;;5072864;28;20460;-68
2022/10/18 00:18:17;;;;;;;3.00;2.57;;;13.20;99.90;;;;;;5073400;28;20459;-68
2022/10/18 00:20:43;;;;;;;3.60;2.70;;;13.20;99.90;;;;;;5073103;28;20482;-68
2022/10/18 00:23:10;;;;;;;5.30;2.90;;;13.20;99.90;;;;;;5072566;28;20455;-68
2022/10/18 00:25:37;;;;;;;4.20;2.50;;;13.10;99.90;;;;;;5072927;28;20466;-69
2022/10/18 00:28:04;;;;;;;4.67;2.73;;;13.10;99.90;;;;;;5073170;28;20462;-68
2022/10/18 00:30:30;;;;;;;2.50;2.10;;;13.10;99.90;;;;;;5072783;28;20494;-68
2022/10/18 00:32:58;;;;;;;3.77;2.93;;;13.10;99.90;;;;;;5072535;28;20459;-68
2022/10/18 00:35:25;;;;;;;3.43;2.63;;;13.10;99.90;;;;;;5072540;28;20495;-69
2022/10/18 00:37:52;;;;;;;5.53;3.40;;;13.10;99.90;;;;;;5072985;28;20896;-69
2022/10/18 00:40:19;;;;;;;3.50;3.20;;;13.10;99.90;;;;;;5072716;28;20490;-68
2022/10/18 00:42:46;;;;;;;3.30;3.00;;;13.00;99.90;;;;;;5071983;28;20455;-69
2022/10/18 00:45:19;;;;;;;5.05;2.97;;;13.10;99.90;;;;;;5072660;28;20479;-69
2022/10/18 00:47:51;;;;;;;3.10;2.80;;;13.00;99.90;;;;;;5072488;28;20202;-69
2022/10/18 00:50:21;;;;;;;3.03;2.73;;;13.00;99.90;;;;;;5072645;28;20463;-67
2022/10/18 00:52:51;;;;;;;3.40;3.10;;;13.00;99.90;;;;;;5071903;28;20482;-69
2022/10/18 00:55:18;;;;;;;4.87;3.37;;;13.10;99.90;;;;;;5072633;28;20487;-69
2022/10/18 00:57:46;;;;;;;6.20;3.10;;;13.10;99.90;;;;;;5072230;28;20463;-69
2022/10/18 01:00:13;;;;;;;3.33;2.90;;;13.10;99.90;;;;;;5072120;28;20521;-69
2022/10/18 01:02:42;;;;;;;3.43;2.60;;;13.20;99.90;;;;;;5071556;28;20216;-69
2022/10/18 01:05:11;;;;;;;6.83;3.10;;;13.20;99.90;;;;;;5072277;28;20482;-68
2022/10/18 01:08:03;;;;;;;4.33;2.90;;;13.30;99.90;;;;;;5071668;28;20463;-68
2022/10/18 01:10:39;;;;;;;2.87;2.60;;;13.30;99.90;;;;;;5072440;28;20462;-68
2022/10/18 01:13:19;;;;;;;2.63;2.43;;;13.30;99.90;;;;;;5071756;28;20466;-69
2022/10/18 01:15:54;;;;;;;3.07;2.30;;;13.40;99.90;;;;;;5071881;28;20463;-69
2022/10/18 01:18:25;;;;;;;3.30;2.73;;;13.40;99.90;;;;;;5071966;28;20458;-69
2022/10/18 01:21:11;;;;;;;2.47;2.27;;;13.40;99.90;;;;;;5071904;28;20522;-69
2022/10/18 01:24:10;;;;;;;2.97;2.67;;;13.50;99.90;;;;;;5071449;28;20537;-69
2022/10/18 01:26:52;;;;;;;4.40;2.60;;;13.50;99.90;;;;;;5062707;28;20855;-68
2022/10/18 01:29:29;;;;;;;3.00;2.70;;;13.60;99.90;;;;;;5071602;28;20467;-67
2022/10/18 01:32:00;;;;;;;3.73;2.53;;;13.70;99.90;;;;;;5071229;28;20838;-69
2022/10/18 01:34:31;;;;;;;2.53;2.33;;;13.80;99.90;;;;;;5071413;28;20475;-69
2022/10/18 01:37:00;;;;;;;3.20;2.77;;;13.90;99.90;;;;;;5071857;28;20550;-68
2022/10/18 01:39:32;;;;;;;3.37;2.77;;;14.00;99.90;;;;;;5071215;28;20478;-68
2022/10/18 01:42:02;;;;;;;2.83;2.53;;;14.00;99.90;;;;;;5070977;28;20487;-69
2022/10/18 01:44:32;;;;;;;2.70;2.50;;;14.20;99.90;;;;;;5071204;28;20487;-69
2022/10/18 01:47:01;;;;;;;3.10;2.80;;;14.20;99.90;;;;;;5071455;28;20465;-69
2022/10/18 01:49:28;;;;;;;2.43;2.23;;;14.30;99.90;;;;;;5071282;28;20463;-69
2022/10/18 01:51:54;;;;;;;2.60;2.40;;;14.40;99.90;;;;;;5070811;28;20459;-69
2022/10/18 01:54:26;;;;;;;2.47;2.27;;;14.40;99.90;;;;;;5071204;28;20479;-68
2022/10/18 01:56:56;;;;;;;3.77;2.73;;;14.50;99.90;;;;;;5071398;28;21310;-69
2022/10/18 01:59:41;;;;;;;2.50;2.30;;;14.60;99.90;;;;;;5071004;28;20466;-69
2022/10/18 02:02:19;;;;;;;2.80;2.57;;;14.60;99.90;;;;;;5070647;28;20911;-68
2022/10/18 02:04:51;;;;;;;3.23;2.50;;;14.60;99.90;;;;;;5070920;28;20934;-68
2022/10/18 02:07:28;;;;;;;2.77;2.57;;;14.70;99.90;;;;;;5071055;28;20471;-69
2022/10/18 02:10:01;;;;;;;2.40;2.20;;;14.70;99.90;;;;;;5071099;28;20463;-68
2022/10/18 02:12:32;;;;;;;3.13;2.83;;;14.70;99.90;;;;;;5070385;28;20462;-68
2022/10/18 02:15:01;;;;;;;2.73;2.20;;;14.80;99.90;;;;;;5071088;28;20483;-68
2022/10/18 02:17:31;;;;;;;3.40;2.50;;;14.80;99.90;;;;;;5070860;28;20471;-68
2022/10/18 02:20:01;;;;;;;3.27;2.47;;;14.80;99.90;;;;;;5070103;28;20463;-68
2022/10/18 02:22:32;;;;;;;3.77;2.90;;;14.80;99.90;;;;;;5070187;28;20470;-68
2022/10/18 02:25:02;;;;;;;4.00;2.57;;;14.80;99.90;;;;;;5070806;28;20493;-69
2022/10/18 02:27:29;;;;;;;6.07;2.40;;;14.80;99.90;;;;;;5070788;28;20467;-68
2022/10/18 02:29:56;;;;;;;3.13;2.87;;;14.80;99.90;;;;;;5070534;28;20968;-68
2022/10/18 02:32:29;;;;;;;4.70;2.70;;;14.70;99.90;;;;;;5126374;22;20750;-68
2022/10/18 02:35:02;;;;;;;2.80;2.30;;;14.70;99.90;;;;;;5050533;28;21078;-68
2022/10/18 02:37:34;;;;;;;3.50;2.43;;;14.70;99.90;;;;;;5050821;28;20992;-69
2022/10/18 02:40:02;;;;;;;8.33;2.90;;;14.80;99.90;;;;;;5050820;28;20513;-70
2022/10/18 02:42:35;;;;;;;2.50;2.27;;;14.80;99.90;;;;;;5049990;28;20456;-68
2022/10/18 02:45:02;;;;;;;4.00;3.20;;;14.80;99.90;;;;;;5050540;28;21056;-68
2022/10/18 02:47:28;;;;;;;4.23;2.70;;;14.80;99.90;;;;;;5050728;28;20456;-67
2022/10/18 02:49:56;;;;;;;2.87;2.20;;;14.80;99.90;;;;;;5050880;28;20832;-68
2022/10/18 02:52:23;;;;;;;3.23;2.93;;;14.80;99.90;;;;;;5050286;28;20455;-68
2022/10/18 02:54:50;;;;;;;3.67;2.93;;;14.90;99.90;;;;;;5050504;28;20502;-69
2022/10/18 02:57:16;;;;;;;2.37;2.17;;;14.90;99.90;;;;;;5050855;28;20456;-69
2022/10/18 02:59:43;;;;;;;2.90;2.40;;;14.90;99.90;;;;;;5050497;28;20460;-69
2022/10/18 03:02:10;;;;;;;3.37;2.13;;;14.90;99.90;;;;;;5050282;28;21016;-69
2022/10/18 03:04:37;;;;;;;3.80;2.27;;;14.90;99.90;;;;;;5050340;28;20484;-69
2022/10/18 03:07:05;;;;;;;3.63;2.50;;;14.90;99.90;;;;;;5050588;28;20471;-68
2022/10/18 03:09:32;;;;;;;2.47;2.27;;;15.00;99.90;;;;;;5050804;28;21001;-69
2022/10/18 03:11:58;;;;;;;2.80;2.43;;;15.00;99.90;;;;;;5050137;28;20482;-68
2022/10/18 03:14:25;;;;;;;5.87;2.47;;;15.00;99.90;;;;;;5050519;28;20484;-69
2022/10/18 03:16:52;;;;;;;3.40;2.60;;;15.10;99.90;;;;;;5050663;28;20472;-69
2022/10/18 03:19:19;;;;;;;3.23;2.93;;;15.10;99.90;;;;;;5050314;28;20467;-68
2022/10/18 03:21:45;;;;;;;4.10;2.73;;;15.10;99.90;;;;;;5049451;28;20484;-69
2022/10/18 03:24:13;;;;;;;2.80;2.53;;;15.10;99.90;;;;;;5049998;28;20490;-69
2022/10/18 03:26:40;;;;;;;2.63;2.43;;;15.10;99.90;;;;;;5049989;28;20472;-69
2022/10/18 03:29:07;;;;;;;3.10;2.67;;;15.10;99.90;;;;;;5050167;28;20846;-69
2022/10/18 03:31:34;;;;;;;2.87;2.67;;;15.10;99.90;;;;;;5050691;28;20498;-68
2022/10/18 03:34:00;;;;;;;2.40;2.20;;;15.20;99.90;;;;;;5053352;28;20487;-69
2022/10/18 03:36:27;;;;;;;3.03;2.67;;;15.20;99.90;;;;;;5050144;28;20462;-69
2022/10/18 03:38:54;;;;;;;2.60;2.40;;;15.20;99.90;;;;;;5051214;28;21090;-69
2022/10/18 03:41:22;;;;;;;3.40;3.10;;;15.20;99.90;;;;;;5050510;28;20483;-69
2022/10/18 03:43:49;;;;;;;2.37;2.17;;;15.20;99.90;;;;;;5051208;28;20483;-69
2022/10/18 03:46:16;;;;;;;2.27;2.07;;;15.30;99.90;;;;;;5053101;28;20846;-69
2022/10/18 03:48:42;;;;;;;3.00;2.70;;;15.30;99.90;;;;;;5053749;28;20468;-69
2022/10/18 03:51:09;;;;;;;2.43;2.23;;;15.40;99.90;;;;;;5053610;28;20463;-68
2022/10/18 03:53:36;;;;;;;2.37;2.17;;;15.40;99.90;;;;;;5052950;28;20855;-69
2022/10/18 03:56:03;;;;;;;3.20;2.50;;;15.40;99.90;;;;;;5053330;28;20479;-72
2022/10/18 03:58:31;;;;;;;5.73;2.57;;;15.40;99.90;;;;;;5052696;28;20202;-70
2022/10/18 04:00:58;;;;;;;2.90;2.60;;;15.40;99.90;;;;;;5052350;28;20475;-70
2022/10/18 04:03:24;;;;;;;4.20;2.53;;;15.40;99.90;;;;;;5046794;28;20484;-69
2022/10/18 04:05:51;;;;;;;2.47;2.27;;;15.40;99.90;;;;;;5042112;28;20607;-70
2022/10/18 04:08:18;;;;;;;4.43;2.40;;;15.40;99.90;;;;;;5043315;28;20457;-70
2022/10/18 04:10:46;;;;;;;4.37;2.60;;;15.40;99.90;;;;;;5041848;28;20469;-70
2022/10/18 04:13:13;;;;;;;2.50;2.30;;;15.40;99.90;;;;;;5043346;28;20479;-70
2022/10/18 04:15:41;;;;;;;3.07;2.70;;;15.50;99.90;;;;;;5044242;28;20456;-70
2022/10/18 04:18:07;;;;;;;2.83;2.57;;;15.50;99.90;;;;;;5042580;28;20464;-69
2022/10/18 04:20:34;;;;;;;3.77;3.10;;;15.50;99.90;;;;;;5042136;28;20452;-70
2022/10/18 04:23:01;;;;;;;4.40;2.47;;;15.50;99.90;;;;;;5044492;28;20839;-74
2022/10/18 04:25:28;;;;;;;2.47;2.23;;;15.50;99.90;;;;;;5053101;28;20583;-74
2022/10/18 04:27:55;;;;;;;2.90;2.30;;;15.50;99.90;;;;;;5052986;28;20460;-71
2022/10/18 04:30:22;;;;;;;2.93;2.27;;;15.40;99.90;;;;;;5053156;28;20673;-71
2022/10/18 04:32:50;;;;;;;6.00;2.70;;;15.30;99.90;;;;;;5052064;28;20460;-72
2022/10/18 04:35:18;;;;;;;2.60;2.40;;;15.20;99.90;;;;;;5052868;28;20861;-72
2022/10/18 04:37:45;;;;;;;4.00;2.53;;;15.20;99.90;;;;;;5053121;28;20959;-70
2022/10/18 04:40:12;;;;;;;2.50;2.30;;;15.10;99.90;;;;;;5052726;28;20468;-70
2022/10/18 04:42:39;;;;;;;2.90;2.40;;;15.10;99.90;;;;;;5051447;28;20609;-72
2022/10/18 04:45:07;;;;;;;3.00;2.70;;;15.00;99.90;;;;;;5052974;28;20979;-72
2022/10/18 04:47:34;;;;;;;2.17;1.97;;;14.90;99.90;;;;;;5052572;28;20456;-71
2022/10/18 04:50:02;;;;;;;2.50;2.10;;;14.90;99.90;;;;;;5052806;28;20551;-69
2022/10/18 04:52:28;;;;;;;3.60;2.23;;;14.80;99.90;;;;;;5051929;28;20955;-71
2022/10/18 04:54:55;;;;;;;3.17;2.30;;;14.80;99.90;;;;;;5040272;28;20473;-69
2022/10/18 04:57:22;;;;;;;2.70;2.50;;;14.80;99.90;;;;;;5032476;28;20472;-69
2022/10/18 04:59:48;;;;;;;3.30;2.57;;;14.80;99.90;;;;;;5032710;28;20472;-69
2022/10/18 05:02:15;;;;;;;3.73;2.57;;;14.80;99.90;;;;;;5032169;28;20485;-69
2022/10/18 05:04:42;;;;;;;6.27;3.20;;;14.80;99.90;;;;;;5032099;28;20485;-71
2022/10/18 05:07:10;;;;;;;2.40;2.20;;;14.90;99.90;;;;;;5032252;28;20483;-70
2022/10/18 05:09:37;;;;;;;3.70;2.60;;;14.90;99.90;;;;;;5032057;28;20846;-70
2022/10/18 05:12:04;;;;;;;2.60;2.20;;;14.90;99.90;;;;;;5046666;28;20453;-69
2022/10/18 05:14:30;;;;;;;2.90;2.60;;;15.00;99.90;;;;;;5051731;28;20483;-69
2022/10/18 05:16:57;;;;;;;2.30;2.10;;;15.00;99.90;;;;;;5048893;28;20457;-69
2022/10/18 05:19:24;;;;;;;2.43;2.10;;;15.10;99.90;;;;;;5041789;28;20831;-70
2022/10/18 05:21:50;;;;;;;2.60;2.40;;;15.10;99.90;;;;;;5040540;28;20480;-69
2022/10/18 05:24:19;;;;;;;3.07;2.87;;;15.20;99.90;;;;;;5044882;28;20853;-70
2022/10/18 05:26:45;;;;;;;3.50;2.67;;;15.20;99.90;;;;;;5042772;28;20452;-68
2022/10/18 05:29:12;;;;;;;4.50;2.60;;;15.30;99.90;;;;;;5047336;28;20460;-69
2022/10/18 05:31:39;;;;;;;2.53;2.33;;;15.30;99.90;;;;;;5044809;28;20472;-69
2022/10/18 05:34:06;;;;;;;3.10;2.80;;;15.30;99.90;;;;;;5051720;28;20484;-70
2022/10/18 05:36:32;;;;;;;3.27;2.40;;;15.40;99.90;;;;;;5051693;28;20468;-69
2022/10/18 05:41:32;;;;;;;3.10;2.63;;;15.30;99.90;;;;;;5041825;28;20492;-67
2022/10/18 05:43:58;;;;;;;3.97;3.00;;;15.40;99.90;;;;;;5051293;28;20475;-67
2022/10/18 05:46:25;;;;;;;3.30;2.63;;;15.40;99.90;;;;;;5050568;28;20460;-67
2022/10/18 05:48:52;;;;;;;2.80;2.40;;;15.40;99.90;;;;;;5051664;28;20460;-67
2022/10/18 05:51:19;;;;;;;3.47;2.83;;;15.40;99.90;;;;;;5051328;28;20844;-68
2022/10/18 05:53:46;;;;;;;2.80;2.57;;;15.40;99.90;;;;;;5051471;28;20491;-67
2022/10/18 05:56:13;;;;;;;3.33;2.70;;;15.40;99.90;;;;;;5051425;28;20468;-67
2022/10/18 05:58:42;;;;;;;3.83;2.50;;;15.40;99.90;;;;;;5051548;28;20845;-67
2022/10/18 06:01:10;;;;;;;2.60;2.40;;;15.40;99.90;;;;;;5051022;28;20467;-67
2022/10/18 06:03:37;;;;;;;2.33;2.13;;;15.40;99.90;;;;;;5051191;28;20484;-67
2022/10/18 06:06:06;;;;;;;2.60;2.40;;;15.50;99.90;;;;;;5051148;28;20471;-67
2022/10/18 06:08:33;;;;;;;3.10;2.50;;;15.50;99.90;;;;;;5051191;28;20467;-67
2022/10/18 06:11:05;;;;;;;2.80;2.50;;;15.60;99.90;;;;;;5051060;28;20464;-67
2022/10/18 06:13:32;;;;;;;3.20;2.83;;;15.60;99.90;;;;;;5050867;28;20478;-67
2022/10/18 06:16:00;;;;;;;4.53;2.57;;;15.60;99.90;;;;;;5051497;28;20460;-68
2022/10/18 06:18:27;;;;;;;2.70;2.50;;;15.60;99.90;;;;;;5050889;28;20467;-67
2022/10/18 06:20:57;;;;;;;3.03;2.73;;;15.60;99.90;;;;;;5050976;28;20460;-67
2022/10/18 06:23:23;;;;;;;3.03;2.70;;;15.60;99.90;;;;;;5050340;28;20522;-67
2022/10/18 06:25:50;;;;;;;4.10;2.60;;;15.70;99.90;;;;;;5050278;28;20448;-68
2022/10/18 06:28:17;;;;;;;2.93;2.47;;;15.80;99.90;;;;;;5036109;28;20468;-67
2022/10/18 06:30:44;;;;;;;4.10;2.80;;;15.80;99.90;;;;;;5031668;28;20512;-68
2022/10/18 06:33:12;;;;;;;2.80;2.50;;;15.90;99.90;;;;;;5030038;28;20445;-67
2022/10/18 06:35:39;;;;;;;2.93;2.73;;;16.00;99.90;;;;;;5030623;28;20483;-67
2022/10/18 06:38:06;;;;;;;2.20;2.00;;;16.00;99.90;;;;;;5030631;28;20461;-68
2022/10/18 06:40:36;;;;;;;2.73;2.53;;;16.10;99.90;;;;;;5030435;28;20496;-67
2022/10/18 06:43:05;;;;;;;6.00;2.93;;;16.20;99.90;;;;;;5033962;28;20480;-68
2022/10/18 06:45:33;;;;;;;4.10;2.20;;;16.20;99.90;;;;;;5030891;28;20500;-65
2022/10/18 06:48:00;;;;;;;2.80;2.53;;;16.30;99.90;;;;;;5029534;28;20456;-66
2022/10/18 06:50:29;;;;;;;3.00;2.67;;;16.30;99.90;;;;;;5029488;28;20817;-65
2022/10/18 06:52:56;;;;;;;3.27;2.30;;;16.40;99.90;;;;;;5028688;28;20515;-65
2022/10/18 06:55:23;;;;;;;4.13;2.63;;;16.40;99.90;;;;;;5029113;28;20497;-66
2022/10/18 06:57:50;;;;;;;2.87;2.30;;;16.50;99.90;;;;;;5029616;28;20833;-65
2022/10/18 07:00:18;;;;;;;3.03;2.80;;;16.60;99.90;;;;;;5029211;28;20581;-65
2022/10/18 07:02:45;;;;;;;3.00;2.70;;;16.60;99.90;;;;;;5029098;28;20489;-66
2022/10/18 07:05:12;;;;;;;2.53;2.33;;;16.70;99.90;;;;;;5029263;28;20476;-66
2022/10/18 07:07:40;;;;;;;4.70;3.20;;;16.70;99.90;;;;;;5032378;28;20567;-66
2022/10/18 07:10:09;;;;;;;3.57;2.40;;;16.80;99.90;;;;;;5033373;28;20563;-66
2022/10/18 07:12:36;;;;;;;3.40;2.80;;;16.80;99.90;;;;;;5032977;28;20475;-66
2022/10/18 07:15:03;;;;;;;4.40;2.67;;;16.80;99.90;;;;;;5032921;28;20484;-65
2022/10/18 07:17:30;;;;;;;2.87;2.40;;;16.80;99.90;;;;;;5033434;28;20468;-65
2022/10/18 07:19:57;;;;;;;2.93;2.73;;;16.90;99.90;;;;;;5033204;28;20493;-65
2022/10/18 07:22:25;;;;;;;3.53;3.00;;;16.90;99.90;;;;;;5031843;28;20569;-65
2022/10/18 07:24:53;;;;;;;3.93;2.30;;;16.90;99.90;;;;;;5033259;28;20558;-65
2022/10/18 07:27:20;;;;;;;4.67;2.80;;;17.00;99.90;;;;;;5032982;28;20497;-65
2022/10/18 07:29:48;;;;;;;3.03;2.17;;;17.00;99.90;;;;;;5032740;28;20499;-65
2022/10/18 07:32:15;;;;;;;3.23;2.27;;;17.00;99.90;;;;;;5031796;28;20559;-67
2022/10/18 07:34:42;;;;;;;3.27;2.57;;;17.00;99.90;;;;;;5033212;28;20481;-67
2022/10/18 07:37:09;;;;;;;3.57;2.50;;;17.10;99.90;;;;;;5032499;28;20460;-67
2022/10/18 07:39:35;;;;;;;4.90;2.53;;;17.10;99.90;;;;;;5032921;28;20472;-68
2022/10/18 07:42:03;;;;;;;3.00;2.80;;;17.10;99.90;;;;;;5032212;28;20495;-66
2022/10/18 07:44:30;;;;;;;3.57;2.90;;;17.20;99.90;;;;;;5031883;28;20485;-67
2022/10/18 07:46:57;;;;;;;3.73;2.23;;;17.20;99.90;;;;;;5033093;28;20464;-67
2022/10/18 07:49:24;;;;;;;2.70;2.50;;;17.20;99.90;;;;;;5032787;28;20463;-67
2022/10/18 07:51:50;;;;;;;2.40;2.20;;;17.30;99.90;;;;;;5031624;28;20460;-67
2022/10/18 07:54:17;;;;;;;2.50;2.30;;;17.30;99.90;;;;;;5032606;28;20511;-67
2022/10/18 07:56:44;;;;;;;3.87;2.83;;;17.30;99.90;;;;;;5032550;28;20465;-67
2022/10/18 07:59:12;;;;;;;4.33;3.23;;;17.40;99.90;;;;;;5032156;28;20511;-67
2022/10/18 08:01:39;;;;;;;2.30;2.10;;;17.40;99.90;;;;;;5032105;28;20465;-67
2022/10/18 08:04:06;;;;;;;3.50;2.80;;;17.50;99.90;;;;;;5032223;28;20488;-67
2022/10/18 08:06:32;;;;;;;2.50;2.30;;;17.50;99.90;;;;;;5031892;28;20465;-67
2022/10/18 08:08:59;;;;;;;2.03;1.83;;;17.60;99.90;;;;;;5032309;28;20465;-67
2022/10/18 08:11:26;;;;;;;3.03;2.40;;;17.60;99.90;;;;;;5031507;28;20475;-68
2022/10/18 08:13:53;;;;;;;2.73;2.50;;;17.70;99.90;;;;;;5031878;28;20594;-67
2022/10/18 08:16:23;;;;;;;3.10;2.80;;;17.70;99.90;;;;;;5032614;28;20465;-67
2022/10/18 08:18:50;;;;;;;2.50;2.30;;;17.70;99.90;;;;;;5031203;28;20465;-67
2022/10/18 08:21:19;;;;;;;4.50;2.80;;;17.80;99.90;;;;;;5030607;28;20476;-67
2022/10/18 08:23:45;;;;;;;3.50;2.73;;;17.80;99.90;;;;;;5032115;28;21043;-67
2022/10/18 08:26:14;;;;;;;3.00;2.70;;;17.80;99.90;;;;;;5032113;28;20971;-68
2022/10/18 08:28:41;;;;;;;2.47;2.27;;;17.80;99.90;;;;;;5031930;28;20464;-67
2022/10/18 08:31:11;;;;;;;3.30;2.67;;;17.90;99.90;;;;;;5031613;28;21161;-67
2022/10/18 08:33:39;;;;;;;2.67;2.47;;;18.00;99.90;;;;;;5031902;28;20480;-68
2022/10/18 08:36:08;;;;;;;3.03;2.83;;;18.00;99.90;;;;;;5031402;28;20461;-68
2022/10/18 08:38:35;;;;;;;3.10;2.47;;;18.10;99.90;;;;;;5032087;28;20476;-68
2022/10/18 08:41:18;;;;;;;3.97;2.60;;;18.10;99.90;;;;;;5031838;28;20479;-67
2022/10/18 08:43:51;;;;;;;3.27;2.83;;;18.20;99.90;;;;;;5031420;28;20489;-68
2022/10/18 08:46:18;;;;;;;3.10;2.57;;;18.40;99.90;;;;;;5031651;28;20460;-68
2022/10/18 08:48:49;;;;;;;3.60;2.80;;;18.50;99.90;;;;;;5031945;28;20465;-67
2022/10/18 08:51:30;;;;;;;2.53;2.13;;;18.60;99.90;;;;;;5038556;28;20479;-67
2022/10/18 08:54:05;;;;;;;2.70;2.50;;;18.80;99.90;;;;;;5052252;28;20476;-67
2022/10/18 08:56:33;;;;;;;5.07;3.40;;;19.20;99.90;;;;;;5052062;28;20459;-67
2022/10/18 08:59:02;;;;;;;2.57;2.37;;;19.60;99.90;;;;;;5051447;28;20464;-67
2022/10/18 09:01:39;;;;;;;3.77;2.57;;;20.00;99.90;;;;;;5051379;28;20469;-67
2022/10/18 09:04:23;;;;;;;2.80;2.50;;;20.40;99.90;;;;;;5051234;28;20976;-67
2022/10/18 09:07:03;;;;;;;2.30;2.10;;;20.50;99.90;;;;;;5051867;28;20462;-67
2022/10/18 09:09:39;;;;;;;5.13;2.53;;;20.20;99.90;;;;;;5051674;28;20460;-68
2022/10/18 09:12:20;;;;;;;3.30;2.67;;;20.20;99.90;;;;;;5051231;28;20487;-68
2022/10/18 09:15:16;;;;;;;2.87;2.57;;;20.40;99.90;;;;;;5051928;28;20891;-67
2022/10/18 09:18:01;;;;;;;3.40;2.43;;;20.60;99.90;;;;;;5045181;28;20473;-68
2022/10/18 09:20:34;;;;;;;4.23;2.60;;;20.80;99.90;;;;;;5051093;28;20462;-68
2022/10/18 09:23:10;;;;;;;3.17;2.87;;;20.80;99.90;;;;;;5050925;28;20587;-67
2022/10/18 09:25:44;;;;;;;3.00;2.40;;;21.10;99.90;;;;;;5051750;28;20465;-67
2022/10/18 09:28:19;;;;;;;4.20;2.60;;;21.40;99.90;;;;;;5049018;28;20473;-68
2022/10/18 09:30:51;;;;;;;2.50;2.30;;;21.80;99.90;;;;;;5051992;28;20650;-67
2022/10/18 09:33:30;;;;;;;2.60;2.17;;;22.00;99.90;;;;;;5051711;28;20968;-68
2022/10/18 09:36:01;;;;;;;2.33;2.13;;;22.20;99.90;;;;;;5051471;28;20969;-68
2022/10/18 09:38:32;;;;;;;4.30;2.60;;;22.50;99.90;;;;;;5051743;28;20850;-65
2022/10/18 09:41:04;;;;;;;2.50;2.30;;;22.70;99.90;;;;;;5051783;28;20471;-67
2022/10/18 09:43:42;;;;;;;2.27;2.07;;;22.80;99.90;;;;;;5051074;28;20513;-67
2022/10/18 09:46:10;;;;;;;2.70;2.50;;;22.80;99.90;;;;;;5051670;28;20464;-67
2022/10/18 09:48:45;;;;;;;4.03;2.20;;;22.80;99.90;;;;;;5051131;28;20529;-67
2022/10/18 09:51:20;;;;;;;5.17;2.47;;;22.90;99.90;;;;;;5050907;28;20463;-67
2022/10/18 09:54:00;;;;;;;2.57;2.37;;;23.10;99.90;;;;;;5051697;28;20476;-67
2022/10/18 09:56:30;;;;;;;2.80;2.47;;;23.30;99.90;;;;;;5048493;28;20878;-68
2022/10/18 09:58:57;;;;;;;2.90;2.07;;;23.50;99.90;;;;;;5051077;28;20471;-67
2022/10/18 10:01:26;;;;;;;4.00;2.30;;;23.50;99.90;;;;;;5049759;28;20464;-67
2022/10/18 10:03:53;;;;;;;3.53;2.13;;;23.60;99.90;;;;;;5050206;28;20484;-67
2022/10/18 10:06:28;;;;;;;3.60;2.40;;;23.60;99.90;;;;;;5050755;28;21043;-67
2022/10/18 10:08:59;;;;;;;2.70;2.40;;;23.60;99.90;;;;;;5051046;28;20470;-68
2022/10/18 10:11:32;;;;;;;4.10;2.60;;;23.60;99.90;;;;;;5049464;28;20467;-67
2022/10/18 10:14:08;;;;;;;5.83;2.50;;;23.50;99.90;;;;;;5050297;28;20486;-68
2022/10/18 10:16:44;;;;;;;2.97;2.13;;;23.40;99.90;;;;;;5037204;28;20462;-68
2022/10/18 10:19:18;;;;;;;2.20;1.90;;;23.50;99.90;;;;;;5050298;28;20459;-65
2022/10/18 10:21:48;;;;;;;4.20;2.37;;;23.40;99.90;;;;;;5049877;28;20474;-68
2022/10/18 10:24:29;;;;;;;3.90;2.73;;;23.20;99.90;;;;;;5050049;28;20488;-68
2022/10/18 10:27:01;;;;;;;3.30;2.30;;;23.00;99.90;;;;;;5050048;28;20458;-68
2022/10/18 10:29:52;;;;;;;2.87;2.60;;;22.70;99.90;;;;;;5035630;28;20468;-65
2022/10/18 10:32:20;;;;;;;3.33;2.40;;;22.60;99.90;;;;;;5029915;28;20479;-67
2022/10/18 10:34:47;;;;;;;2.90;2.60;;;22.60;99.90;;;;;;5030998;28;20476;-67
2022/10/18 10:37:28;;;;;;;2.47;2.27;;;22.80;99.90;;;;;;5030355;28;20468;-67
2022/10/18 10:40:17;;;;;;;4.87;2.57;;;22.90;99.90;;;;;;5030888;28;20853;-67
2022/10/18 10:43:03;;;;;;;2.70;2.50;;;23.20;99.90;;;;;;5034737;28;20466;-67
2022/10/18 10:45:33;;;;;;;2.70;2.43;;;23.40;99.90;;;;;;5029861;28;20484;-67
2022/10/18 10:48:11;;;;;;;2.53;2.33;;;23.60;99.90;;;;;;5030428;28;20451;-66
2022/10/18 10:50:50;;;;;;;2.40;2.20;;;23.90;99.90;;;;;;5029642;28;20457;-66
2022/10/18 10:53:39;;;;;;;2.50;2.30;;;24.30;99.90;;;;;;5029668;28;20457;-66
2022/10/18 10:56:12;;;;;;;3.57;2.83;;;24.30;99.90;;;;;;5028924;28;20456;-66
2022/10/18 10:58:40;;;;;;;2.20;2.00;;;24.00;99.90;;;;;;5029314;28;20464;-65
2022/10/18 11:01:23;;;;;;;3.27;2.40;;;23.70;99.90;;;;;;5029057;28;20464;-65
2022/10/18 11:03:52;;;;;;;3.00;2.30;;;23.40;99.90;;;;;;5029234;28;20507;-66
2022/10/18 11:06:53;;;;;;;2.77;2.57;;;23.00;99.90;;;;;;5028873;28;20465;-65
2022/10/18 11:09:43;;;;;;;4.07;2.90;;;22.60;99.90;;;;;;5029537;28;20475;-66
2022/10/18 11:12:18;;;;;;;2.80;2.43;;;22.40;99.90;;;;;;5028225;28;20456;-66
2022/10/18 11:14:51;;;;;;;3.77;2.93;;;22.20;99.90;;;;;;5029549;28;20473;-66
2022/10/18 11:17:25;;;;;;;2.37;1.90;;;22.20;99.90;;;;;;5029295;28;20812;-67
2022/10/18 11:20:04;;;;;;;3.00;2.70;;;22.10;99.90;;;;;;5029041;28;20464;-66
2022/10/18 11:22:36;;;;;;;2.50;2.30;;;22.10;99.90;;;;;;5028716;28;20484;-65
2022/10/18 11:25:05;;;;;;;2.53;2.33;;;22.00;99.90;;;;;;5029291;28;20498;-66
2022/10/18 11:27:38;;;;;;;2.57;2.37;;;22.00;99.90;;;;;;5028388;28;21070;-66
2022/10/18 11:30:25;;;;;;;4.07;2.20;;;21.90;99.90;;;;;;5029383;28;20564;-66
2022/10/18 11:32:59;;;;;;;3.13;2.50;;;22.10;99.90;;;;;;5028570;28;20566;-66
2022/10/18 11:35:37;;;;;;;2.60;2.40;;;22.40;99.90;;;;;;5028796;28;20485;-65
2022/10/18 11:38:26;;;;;;;4.40;2.77;;;22.60;99.90;;;;;;5027808;28;20466;-66
2022/10/18 11:41:14;;;;;;;2.57;2.37;;;23.00;99.90;;;;;;5029899;28;21073;-66
2022/10/18 11:43:49;;;;;;;2.40;2.20;;;23.40;99.90;;;;;;5030040;28;21018;-65
2022/10/18 11:46:26;;;;;;;3.90;2.00;;;23.80;99.90;;;;;;5030170;28;20960;-65
2022/10/18 11:49:11;;;;;;;4.10;2.03;;;23.90;99.90;;;;;;5030059;28;20464;-66
2022/10/18 11:51:47;;;;;;;1.83;1.67;;;24.00;99.90;;;;;;5029509;28;20470;-66
2022/10/18 11:54:32;;;;;;;2.70;2.33;;;24.10;99.90;;;;;;5033803;28;21042;-66
2022/10/18 11:57:09;;;;;;;2.57;2.30;;;24.20;99.90;;;;;;5033617;28;20464;-66
2022/10/18 11:59:43;;;;;;;2.63;2.43;;;24.10;99.90;;;;;;5033787;28;20952;-66
2022/10/18 12:02:31;;;;;;;3.20;2.90;;;23.80;99.90;;;;;;5032890;28;20464;-67
2022/10/18 12:05:01;;;;;;;4.57;2.83;;;23.40;99.90;;;;;;5033090;28;20497;-68
2022/10/18 12:07:32;;;;;;;2.70;2.50;;;23.10;99.90;;;;;;5033872;28;20823;-67
2022/10/18 12:10:01;;;;;;;2.80;2.60;;;22.90;99.90;;;;;;5033666;28;20831;-67
2022/10/18 12:12:34;;;;;;;6.00;2.80;;;22.70;99.90;;;;;;5032538;28;20465;-67
2022/10/18 12:15:05;;;;;;;3.30;2.83;;;22.40;99.90;;;;;;5033374;28;20481;-67
2022/10/18 12:17:37;;;;;;;3.50;3.00;;;22.50;99.90;;;;;;5033050;28;20472;-67
2022/10/18 12:20:10;;;;;;;3.60;2.30;;;22.80;99.90;;;;;;5032378;28;20467;-67
2022/10/18 12:22:40;;;;;;;3.93;2.63;;;23.30;99.90;;;;;;5032921;28;20477;-67
2022/10/18 12:25:12;;;;;;;2.50;2.10;;;23.90;99.90;;;;;;5032998;28;20493;-67
2022/10/18 12:27:48;;;;;;;3.20;2.13;;;24.10;99.90;;;;;;5033424;28;20483;-67
2022/10/18 12:30:24;;;;;;;2.77;1.57;;;24.30;99.90;;;;;;5032667;28;20463;-67
2022/10/18 12:32:56;;;;;;;1.90;1.60;;;24.20;99.90;;;;;;5039418;28;20467;-67
2022/10/18 12:35:24;;;;;;;2.70;2.10;;;24.10;99.90;;;;;;5052571;28;20480;-67
2022/10/18 12:38:02;;;;;;;1.90;1.70;;;24.20;99.90;;;;;;5052784;28;20471;-67
2022/10/18 12:40:35;;;;;;;3.70;1.63;;;24.30;99.90;;;;;;5051886;28;20467;-67
2022/10/18 12:43:09;;;;;;;2.00;1.50;;;24.40;99.90;;;;;;5051619;28;20467;-67
2022/10/18 12:45:48;;;;;;;2.37;1.60;;;24.20;99.90;;;;;;5052370;28;20939;-67
2022/10/18 12:48:29;;;;;;;3.40;1.40;;;23.70;99.90;;;;;;5051942;28;20459;-68
2022/10/18 12:50:59;;;;;;;1.63;1.53;;;23.30;99.90;;;;;;5052609;28;20485;-67
2022/10/18 12:53:27;;;;;;;1.60;1.50;;;22.90;99.90;;;;;;5051916;28;20975;-68
2022/10/18 12:55:55;;;;;;;1.70;1.40;;;22.60;99.90;;;;;;5052029;28;20466;-67
2022/10/18 12:58:29;;;;;;;1.40;1.30;;;22.30;99.90;;;;;;5052433;28;20989;-67
2022/10/18 13:01:00;;;;;;;2.30;1.60;;;22.10;99.90;;;;;;5052148;28;20466;-67
2022/10/18 13:03:40;;;;;;;1.43;1.33;;;21.90;99.90;;;;;;5050672;28;20902;-67
2022/10/18 13:06:07;;;;;;;1.90;1.80;;;21.70;99.90;;;;;;5051974;28;20947;-67
2022/10/18 13:08:40;;;;;;;2.07;1.63;;;21.70;99.90;;;;;;5052039;28;20456;-67